sensor_id;sensor_type;location;lat;lon;timestamp;P1;durP1;ratioP1;P2;durP2;ratioP2
7316;SDS011;3699;51.462;6.696;2022-09-09T00:00:58;1.63;;;1.33;;
7316;SDS011;3699;51.462;6.696;2022-09-09T00:03:34;1.90;;;1.20;;
7316;SDS011;3699;51.462;6.696;2022-09-09T00:06:08;2.50;;;1.30;;
7316;SDS011;3699;51.462;6.696;2022-09-09T00:08:45;1.37;;;1.27;;
7316;SDS011;3699;51.462;6.696;2022-09-09T00:11:23;1.50;;;1.37;;
7316;SDS011;3699;51.462;6.696;2022-09-09T00:13:53;2.10;;;1.40;;
7316;SDS011;3699;51.462;6.696;2022-09-09T00:16:24;3.67;;;2.30;;
7316;SDS011;3699;51.462;6.696;2022-09-09T00:18:56;1.50;;;1.40;;
7316;SDS011;3699;51.462;6.696;2022-09-09T00:21:32;2.93;;;1.50;;
7316;SDS011;3699;51.462;6.696;2022-09-09T00:24:01;2.37;;;1.30;;
7316;SDS011;3699;51.462;6.696;2022-09-09T00:26:40;1.87;;;1.60;;
7316;SDS011;3699;51.462;6.696;2022-09-09T00:29:14;2.23;;;1.50;;
7316;SDS011;3699;51.462;6.696;2022-09-09T00:31:46;4.47;;;1.70;;
7316;SDS011;3699;51.462;6.696;2022-09-09T00:34:13;2.53;;;2.17;;
7316;SDS011;3699;51.462;6.696;2022-09-09T00:36:45;3.57;;;1.67;;
7316;SDS011;3699;51.462;6.696;2022-09-09T00:39:18;2.50;;;1.63;;
7316;SDS011;3699;51.462;6.696;2022-09-09T00:41:51;1.83;;;1.70;;
7316;SDS011;3699;51.462;6.696;2022-09-09T00:44:30;5.83;;;1.90;;
7316;SDS011;3699;51.462;6.696;2022-09-09T00:47:04;3.30;;;1.50;;
7316;SDS011;3699;51.462;6.696;2022-09-09T00:49:49;1.90;;;1.70;;
7316;SDS011;3699;51.462;6.696;2022-09-09T00:52:30;2.47;;;1.60;;
7316;SDS011;3699;51.462;6.696;2022-09-09T00:55:05;2.00;;;1.60;;
7316;SDS011;3699;51.462;6.696;2022-09-09T00:57:37;2.03;;;1.70;;
7316;SDS011;3699;51.462;6.696;2022-09-09T01:00:17;2.10;;;1.83;;
7316;SDS011;3699;51.462;6.696;2022-09-09T01:02:48;2.27;;;1.77;;
7316;SDS011;3699;51.462;6.696;2022-09-09T01:05:24;2.13;;;1.80;;
7316;SDS011;3699;51.462;6.696;2022-09-09T01:07:57;2.43;;;1.97;;
7316;SDS011;3699;51.462;6.696;2022-09-09T01:10:29;2.20;;;1.60;;
7316;SDS011;3699;51.462;6.696;2022-09-09T01:13:08;1.70;;;1.53;;
7316;SDS011;3699;51.462;6.696;2022-09-09T01:15:41;3.47;;;1.50;;
7316;SDS011;3699;51.462;6.696;2022-09-09T01:18:11;2.60;;;1.80;;
7316;SDS011;3699;51.462;6.696;2022-09-09T01:20:43;2.27;;;1.70;;
7316;SDS011;3699;51.462;6.696;2022-09-09T01:23:24;2.17;;;1.60;;
7316;SDS011;3699;51.462;6.696;2022-09-09T01:26:09;5.17;;;2.03;;
7316;SDS011;3699;51.462;6.696;2022-09-09T01:28:48;2.93;;;2.03;;
7316;SDS011;3699;51.462;6.696;2022-09-09T01:31:18;4.40;;;2.50;;
7316;SDS011;3699;51.462;6.696;2022-09-09T01:33:47;5.70;;;3.83;;
7316;SDS011;3699;51.462;6.696;2022-09-09T01:36:16;6.90;;;4.70;;
7316;SDS011;3699;51.462;6.696;2022-09-09T01:38:47;6.03;;;5.20;;
7316;SDS011;3699;51.462;6.696;2022-09-09T01:41:15;6.60;;;6.00;;
7316;SDS011;3699;51.462;6.696;2022-09-09T01:43:42;7.77;;;6.97;;
7316;SDS011;3699;51.462;6.696;2022-09-09T01:46:09;7.37;;;6.67;;
7316;SDS011;3699;51.462;6.696;2022-09-09T01:48:38;10.57;;;7.73;;
7316;SDS011;3699;51.462;6.696;2022-09-09T01:51:07;9.27;;;7.27;;
7316;SDS011;3699;51.462;6.696;2022-09-09T01:53:35;7.97;;;6.97;;
7316;SDS011;3699;51.462;6.696;2022-09-09T01:56:05;7.57;;;6.77;;
7316;SDS011;3699;51.462;6.696;2022-09-09T01:58:43;7.17;;;5.63;;
7316;SDS011;3699;51.462;6.696;2022-09-09T02:01:21;8.73;;;6.07;;
7316;SDS011;3699;51.462;6.696;2022-09-09T02:03:57;7.73;;;5.67;;
7316;SDS011;3699;51.462;6.696;2022-09-09T02:06:28;6.50;;;4.90;;
7316;SDS011;3699;51.462;6.696;2022-09-09T02:09:00;5.87;;;4.17;;
7316;SDS011;3699;51.462;6.696;2022-09-09T02:11:30;4.57;;;3.80;;
7316;SDS011;3699;51.462;6.696;2022-09-09T02:14:00;6.00;;;3.80;;
7316;SDS011;3699;51.462;6.696;2022-09-09T02:16:32;4.73;;;3.47;;
7316;SDS011;3699;51.462;6.696;2022-09-09T02:19:06;7.23;;;3.23;;
7316;SDS011;3699;51.462;6.696;2022-09-09T02:21:37;6.27;;;3.53;;
7316;SDS011;3699;51.462;6.696;2022-09-09T02:24:06;10.87;;;3.20;;
7316;SDS011;3699;51.462;6.696;2022-09-09T02:26:35;5.30;;;3.03;;
7316;SDS011;3699;51.462;6.696;2022-09-09T02:29:08;4.40;;;3.37;;
7316;SDS011;3699;51.462;6.696;2022-09-09T02:31:39;4.07;;;3.07;;
7316;SDS011;3699;51.462;6.696;2022-09-09T02:34:08;5.97;;;3.13;;
7316;SDS011;3699;51.462;6.696;2022-09-09T02:36:36;3.17;;;2.60;;
7316;SDS011;3699;51.462;6.696;2022-09-09T02:39:07;9.33;;;3.20;;
7316;SDS011;3699;51.462;6.696;2022-09-09T02:41:36;3.17;;;2.73;;
7316;SDS011;3699;51.462;6.696;2022-09-09T02:44:08;5.23;;;2.50;;
7316;SDS011;3699;51.462;6.696;2022-09-09T02:46:41;7.07;;;2.80;;
7316;SDS011;3699;51.462;6.696;2022-09-09T02:49:35;4.50;;;2.70;;
7316;SDS011;3699;51.462;6.696;2022-09-09T02:52:14;5.33;;;2.80;;
7316;SDS011;3699;51.462;6.696;2022-09-09T02:54:43;6.90;;;3.07;;
7316;SDS011;3699;51.462;6.696;2022-09-09T02:57:12;6.07;;;3.20;;
7316;SDS011;3699;51.462;6.696;2022-09-09T02:59:42;4.40;;;2.70;;
7316;SDS011;3699;51.462;6.696;2022-09-09T03:02:10;2.97;;;2.40;;
7316;SDS011;3699;51.462;6.696;2022-09-09T03:04:38;6.10;;;2.60;;
7316;SDS011;3699;51.462;6.696;2022-09-09T03:07:05;4.13;;;2.43;;
7316;SDS011;3699;51.462;6.696;2022-09-09T03:09:32;5.23;;;2.53;;
7316;SDS011;3699;51.462;6.696;2022-09-09T03:11:59;6.30;;;3.00;;
7316;SDS011;3699;51.462;6.696;2022-09-09T03:14:26;6.77;;;3.70;;
7316;SDS011;3699;51.462;6.696;2022-09-09T03:16:54;5.30;;;2.73;;
7316;SDS011;3699;51.462;6.696;2022-09-09T03:19:23;4.87;;;2.40;;
7316;SDS011;3699;51.462;6.696;2022-09-09T03:21:49;7.63;;;2.60;;
7316;SDS011;3699;51.462;6.696;2022-09-09T03:24:17;3.70;;;2.73;;
7316;SDS011;3699;51.462;6.696;2022-09-09T03:26:43;6.73;;;2.60;;
7316;SDS011;3699;51.462;6.696;2022-09-09T03:29:10;6.20;;;2.80;;
7316;SDS011;3699;51.462;6.696;2022-09-09T03:31:38;6.90;;;3.00;;
7316;SDS011;3699;51.462;6.696;2022-09-09T03:34:06;7.90;;;2.83;;
7316;SDS011;3699;51.462;6.696;2022-09-09T03:36:33;3.93;;;2.30;;
7316;SDS011;3699;51.462;6.696;2022-09-09T03:39:00;6.20;;;3.20;;
7316;SDS011;3699;51.462;6.696;2022-09-09T03:41:28;3.93;;;2.50;;
7316;SDS011;3699;51.462;6.696;2022-09-09T03:43:55;5.60;;;2.73;;
7316;SDS011;3699;51.462;6.696;2022-09-09T03:46:23;4.23;;;2.47;;
7316;SDS011;3699;51.462;6.696;2022-09-09T03:48:51;8.30;;;2.53;;
7316;SDS011;3699;51.462;6.696;2022-09-09T03:51:19;5.43;;;2.67;;
7316;SDS011;3699;51.462;6.696;2022-09-09T03:53:46;5.63;;;2.73;;
7316;SDS011;3699;51.462;6.696;2022-09-09T03:56:14;5.90;;;2.63;;
7316;SDS011;3699;51.462;6.696;2022-09-09T03:58:40;2.53;;;2.23;;
7316;SDS011;3699;51.462;6.696;2022-09-09T04:01:08;5.90;;;2.50;;
7316;SDS011;3699;51.462;6.696;2022-09-09T04:03:38;6.57;;;2.30;;
7316;SDS011;3699;51.462;6.696;2022-09-09T04:06:05;8.30;;;2.40;;
7316;SDS011;3699;51.462;6.696;2022-09-09T04:08:35;5.20;;;2.40;;
7316;SDS011;3699;51.462;6.696;2022-09-09T04:11:03;4.60;;;2.40;;
7316;SDS011;3699;51.462;6.696;2022-09-09T04:13:31;5.13;;;2.50;;
7316;SDS011;3699;51.462;6.696;2022-09-09T04:15:59;7.37;;;2.80;;
7316;SDS011;3699;51.462;6.696;2022-09-09T04:18:27;6.67;;;3.07;;
7316;SDS011;3699;51.462;6.696;2022-09-09T04:20:54;5.80;;;2.40;;
7316;SDS011;3699;51.462;6.696;2022-09-09T04:23:22;7.30;;;2.73;;
7316;SDS011;3699;51.462;6.696;2022-09-09T04:25:51;4.77;;;2.30;;
7316;SDS011;3699;51.462;6.696;2022-09-09T04:28:20;4.73;;;3.60;;
7316;SDS011;3699;51.462;6.696;2022-09-09T04:30:49;4.00;;;3.03;;
7316;SDS011;3699;51.462;6.696;2022-09-09T04:33:17;5.27;;;2.47;;
7316;SDS011;3699;51.462;6.696;2022-09-09T04:35:44;6.80;;;2.80;;
7316;SDS011;3699;51.462;6.696;2022-09-09T04:38:12;9.20;;;3.20;;
7316;SDS011;3699;51.462;6.696;2022-09-09T04:40:41;6.20;;;2.77;;
7316;SDS011;3699;51.462;6.696;2022-09-09T04:43:10;4.33;;;2.47;;
7316;SDS011;3699;51.462;6.696;2022-09-09T04:45:37;6.20;;;2.90;;
7316;SDS011;3699;51.462;6.696;2022-09-09T04:48:05;6.20;;;2.77;;
7316;SDS011;3699;51.462;6.696;2022-09-09T04:50:32;4.07;;;2.20;;
7316;SDS011;3699;51.462;6.696;2022-09-09T04:52:59;3.90;;;2.83;;
7316;SDS011;3699;51.462;6.696;2022-09-09T04:55:26;8.50;;;2.43;;
7316;SDS011;3699;51.462;6.696;2022-09-09T04:57:53;4.83;;;2.90;;
7316;SDS011;3699;51.462;6.696;2022-09-09T05:00:21;6.07;;;2.80;;
7316;SDS011;3699;51.462;6.696;2022-09-09T05:02:48;6.97;;;2.90;;
7316;SDS011;3699;51.462;6.696;2022-09-09T05:05:16;4.13;;;2.80;;
7316;SDS011;3699;51.462;6.696;2022-09-09T05:07:43;9.50;;;2.80;;
7316;SDS011;3699;51.462;6.696;2022-09-09T05:10:10;6.97;;;2.80;;
7316;SDS011;3699;51.462;6.696;2022-09-09T05:12:39;11.07;;;3.20;;
7316;SDS011;3699;51.462;6.696;2022-09-09T05:15:06;3.53;;;2.70;;
7316;SDS011;3699;51.462;6.696;2022-09-09T05:17:35;7.27;;;3.17;;
7316;SDS011;3699;51.462;6.696;2022-09-09T05:20:02;9.13;;;3.37;;
7316;SDS011;3699;51.462;6.696;2022-09-09T05:22:30;8.27;;;3.00;;
7316;SDS011;3699;51.462;6.696;2022-09-09T05:24:56;7.87;;;3.00;;
7316;SDS011;3699;51.462;6.696;2022-09-09T05:27:23;12.53;;;3.27;;
7316;SDS011;3699;51.462;6.696;2022-09-09T05:29:50;10.37;;;2.73;;
7316;SDS011;3699;51.462;6.696;2022-09-09T05:32:17;7.93;;;3.00;;
7316;SDS011;3699;51.462;6.696;2022-09-09T05:34:45;5.97;;;3.20;;
7316;SDS011;3699;51.462;6.696;2022-09-09T05:37:11;9.27;;;3.07;;
7316;SDS011;3699;51.462;6.696;2022-09-09T05:39:38;6.47;;;2.93;;
7316;SDS011;3699;51.462;6.696;2022-09-09T05:42:05;7.03;;;2.67;;
7316;SDS011;3699;51.462;6.696;2022-09-09T05:44:32;7.03;;;3.30;;
7316;SDS011;3699;51.462;6.696;2022-09-09T05:46:59;7.70;;;3.20;;
7316;SDS011;3699;51.462;6.696;2022-09-09T05:49:26;5.90;;;3.13;;
7316;SDS011;3699;51.462;6.696;2022-09-09T05:51:54;5.80;;;2.80;;
7316;SDS011;3699;51.462;6.696;2022-09-09T05:54:21;6.97;;;2.70;;
7316;SDS011;3699;51.462;6.696;2022-09-09T05:56:48;7.63;;;2.97;;
7316;SDS011;3699;51.462;6.696;2022-09-09T05:59:15;14.53;;;3.07;;
7316;SDS011;3699;51.462;6.696;2022-09-09T06:01:43;8.60;;;2.90;;
7316;SDS011;3699;51.462;6.696;2022-09-09T06:04:10;6.33;;;3.07;;
7316;SDS011;3699;51.462;6.696;2022-09-09T06:06:37;6.57;;;3.17;;
7316;SDS011;3699;51.462;6.696;2022-09-09T06:09:06;8.63;;;3.03;;
7316;SDS011;3699;51.462;6.696;2022-09-09T06:11:36;9.13;;;2.93;;
7316;SDS011;3699;51.462;6.696;2022-09-09T06:14:03;6.77;;;2.97;;
7316;SDS011;3699;51.462;6.696;2022-09-09T06:16:31;7.53;;;3.30;;
7316;SDS011;3699;51.462;6.696;2022-09-09T06:18:58;10.87;;;2.90;;
7316;SDS011;3699;51.462;6.696;2022-09-09T06:21:26;7.43;;;3.10;;
7316;SDS011;3699;51.462;6.696;2022-09-09T06:23:55;5.33;;;2.70;;
7316;SDS011;3699;51.462;6.696;2022-09-09T06:26:24;8.10;;;2.90;;
7316;SDS011;3699;51.462;6.696;2022-09-09T06:28:52;7.83;;;2.87;;
7316;SDS011;3699;51.462;6.696;2022-09-09T06:31:21;10.03;;;3.17;;
7316;SDS011;3699;51.462;6.696;2022-09-09T06:33:49;8.57;;;2.47;;
7316;SDS011;3699;51.462;6.696;2022-09-09T06:36:17;6.77;;;2.80;;
7316;SDS011;3699;51.462;6.696;2022-09-09T06:38:45;10.17;;;3.47;;
7316;SDS011;3699;51.462;6.696;2022-09-09T06:41:13;5.77;;;2.40;;
7316;SDS011;3699;51.462;6.696;2022-09-09T06:43:42;9.50;;;3.90;;
7316;SDS011;3699;51.462;6.696;2022-09-09T06:46:10;8.30;;;2.43;;
7316;SDS011;3699;51.462;6.696;2022-09-09T06:48:38;14.80;;;3.73;;
7316;SDS011;3699;51.462;6.696;2022-09-09T06:51:07;7.13;;;2.90;;
7316;SDS011;3699;51.462;6.696;2022-09-09T06:53:36;5.20;;;2.40;;
7316;SDS011;3699;51.462;6.696;2022-09-09T06:56:17;5.73;;;1.93;;
7316;SDS011;3699;51.462;6.696;2022-09-09T06:58:47;7.23;;;2.20;;
7316;SDS011;3699;51.462;6.696;2022-09-09T07:01:14;10.27;;;2.53;;
7316;SDS011;3699;51.462;6.696;2022-09-09T07:03:42;7.33;;;2.30;;
7316;SDS011;3699;51.462;6.696;2022-09-09T07:06:13;8.37;;;3.00;;
7316;SDS011;3699;51.462;6.696;2022-09-09T07:08:42;4.13;;;2.07;;
7316;SDS011;3699;51.462;6.696;2022-09-09T07:11:09;6.43;;;2.30;;
7316;SDS011;3699;51.462;6.696;2022-09-09T07:13:37;4.73;;;2.10;;
7316;SDS011;3699;51.462;6.696;2022-09-09T07:16:05;4.60;;;2.10;;
7316;SDS011;3699;51.462;6.696;2022-09-09T07:18:33;8.43;;;2.53;;
7316;SDS011;3699;51.462;6.696;2022-09-09T07:21:01;5.20;;;2.00;;
7316;SDS011;3699;51.462;6.696;2022-09-09T07:23:28;3.93;;;1.90;;
7316;SDS011;3699;51.462;6.696;2022-09-09T07:25:56;4.33;;;2.00;;
7316;SDS011;3699;51.462;6.696;2022-09-09T07:28:23;5.10;;;2.83;;
7316;SDS011;3699;51.462;6.696;2022-09-09T07:30:54;6.67;;;2.33;;
7316;SDS011;3699;51.462;6.696;2022-09-09T07:33:23;4.17;;;2.80;;
7316;SDS011;3699;51.462;6.696;2022-09-09T07:35:50;6.23;;;2.70;;
7316;SDS011;3699;51.462;6.696;2022-09-09T07:38:17;3.67;;;1.77;;
7316;SDS011;3699;51.462;6.696;2022-09-09T07:40:44;10.60;;;2.27;;
7316;SDS011;3699;51.462;6.696;2022-09-09T07:43:11;5.87;;;2.10;;
7316;SDS011;3699;51.462;6.696;2022-09-09T07:45:39;4.53;;;2.03;;
7316;SDS011;3699;51.462;6.696;2022-09-09T07:48:07;5.43;;;1.90;;
7316;SDS011;3699;51.462;6.696;2022-09-09T07:50:37;6.00;;;2.10;;
7316;SDS011;3699;51.462;6.696;2022-09-09T07:53:04;5.63;;;2.30;;
7316;SDS011;3699;51.462;6.696;2022-09-09T07:55:31;5.23;;;2.10;;
7316;SDS011;3699;51.462;6.696;2022-09-09T07:57:58;5.60;;;1.80;;
7316;SDS011;3699;51.462;6.696;2022-09-09T08:00:25;6.87;;;1.90;;
7316;SDS011;3699;51.462;6.696;2022-09-09T08:02:53;5.93;;;1.93;;
7316;SDS011;3699;51.462;6.696;2022-09-09T08:05:20;5.30;;;1.67;;
7316;SDS011;3699;51.462;6.696;2022-09-09T08:07:48;4.47;;;1.93;;
7316;SDS011;3699;51.462;6.696;2022-09-09T08:10:15;6.37;;;2.10;;
7316;SDS011;3699;51.462;6.696;2022-09-09T08:12:43;8.00;;;1.83;;
7316;SDS011;3699;51.462;6.696;2022-09-09T08:15:10;3.00;;;1.60;;
7316;SDS011;3699;51.462;6.696;2022-09-09T08:17:37;5.43;;;1.97;;
7316;SDS011;3699;51.462;6.696;2022-09-09T08:20:04;4.50;;;2.07;;
7316;SDS011;3699;51.462;6.696;2022-09-09T08:22:32;12.23;;;2.73;;
7316;SDS011;3699;51.462;6.696;2022-09-09T08:25:00;3.20;;;1.63;;
7316;SDS011;3699;51.462;6.696;2022-09-09T08:27:27;9.07;;;2.57;;
7316;SDS011;3699;51.462;6.696;2022-09-09T08:29:54;7.00;;;1.90;;
7316;SDS011;3699;51.462;6.696;2022-09-09T08:32:21;4.13;;;1.73;;
7316;SDS011;3699;51.462;6.696;2022-09-09T08:34:48;7.07;;;2.13;;
7316;SDS011;3699;51.462;6.696;2022-09-09T08:37:16;7.67;;;1.70;;
7316;SDS011;3699;51.462;6.696;2022-09-09T08:39:44;9.70;;;2.00;;
7316;SDS011;3699;51.462;6.696;2022-09-09T08:42:19;3.70;;;1.67;;
7316;SDS011;3699;51.462;6.696;2022-09-09T08:45:02;4.70;;;1.53;;
7316;SDS011;3699;51.462;6.696;2022-09-09T08:47:42;5.00;;;1.93;;
7316;SDS011;3699;51.462;6.696;2022-09-09T08:50:20;3.50;;;1.80;;
7316;SDS011;3699;51.462;6.696;2022-09-09T08:52:52;3.90;;;2.00;;
7316;SDS011;3699;51.462;6.696;2022-09-09T08:55:24;5.47;;;1.80;;
7316;SDS011;3699;51.462;6.696;2022-09-09T08:57:56;9.37;;;2.20;;
7316;SDS011;3699;51.462;6.696;2022-09-09T09:00:27;4.43;;;2.27;;
7316;SDS011;3699;51.462;6.696;2022-09-09T09:03:03;8.10;;;1.83;;
7316;SDS011;3699;51.462;6.696;2022-09-09T09:05:36;7.10;;;2.07;;
7316;SDS011;3699;51.462;6.696;2022-09-09T09:08:11;2.87;;;1.70;;
7316;SDS011;3699;51.462;6.696;2022-09-09T09:10:47;6.27;;;2.23;;
7316;SDS011;3699;51.462;6.696;2022-09-09T09:13:18;5.37;;;1.70;;
7316;SDS011;3699;51.462;6.696;2022-09-09T09:15:49;5.77;;;1.70;;
7316;SDS011;3699;51.462;6.696;2022-09-09T09:18:19;6.40;;;2.17;;
7316;SDS011;3699;51.462;6.696;2022-09-09T09:20:49;2.90;;;1.90;;
7316;SDS011;3699;51.462;6.696;2022-09-09T09:23:21;5.23;;;1.90;;
7316;SDS011;3699;51.462;6.696;2022-09-09T09:25:50;3.87;;;1.50;;
7316;SDS011;3699;51.462;6.696;2022-09-09T09:28:24;9.20;;;1.90;;
7316;SDS011;3699;51.462;6.696;2022-09-09T09:30:52;4.33;;;1.80;;
7316;SDS011;3699;51.462;6.696;2022-09-09T09:33:23;5.33;;;2.50;;
7316;SDS011;3699;51.462;6.696;2022-09-09T09:35:53;6.73;;;2.10;;
7316;SDS011;3699;51.462;6.696;2022-09-09T09:38:21;5.47;;;1.83;;
7316;SDS011;3699;51.462;6.696;2022-09-09T09:40:49;5.07;;;1.93;;
7316;SDS011;3699;51.462;6.696;2022-09-09T09:43:19;6.60;;;1.83;;
7316;SDS011;3699;51.462;6.696;2022-09-09T09:45:51;7.70;;;1.90;;
7316;SDS011;3699;51.462;6.696;2022-09-09T09:48:17;5.20;;;2.10;;
7316;SDS011;3699;51.462;6.696;2022-09-09T09:50:48;4.23;;;1.90;;
7316;SDS011;3699;51.462;6.696;2022-09-09T09:53:18;8.43;;;2.00;;
7316;SDS011;3699;51.462;6.696;2022-09-09T09:55:50;5.53;;;2.00;;
7316;SDS011;3699;51.462;6.696;2022-09-09T09:58:20;4.17;;;1.70;;
7316;SDS011;3699;51.462;6.696;2022-09-09T10:00:47;6.80;;;2.17;;
7316;SDS011;3699;51.462;6.696;2022-09-09T10:03:21;4.33;;;2.10;;
7316;SDS011;3699;51.462;6.696;2022-09-09T10:05:50;3.07;;;1.60;;
7316;SDS011;3699;51.462;6.696;2022-09-09T10:08:18;1.87;;;1.53;;
7316;SDS011;3699;51.462;6.696;2022-09-09T10:11:02;7.00;;;1.70;;
7316;SDS011;3699;51.462;6.696;2022-09-09T10:13:45;3.47;;;1.43;;
7316;SDS011;3699;51.462;6.696;2022-09-09T10:16:23;5.83;;;1.63;;
7316;SDS011;3699;51.462;6.696;2022-09-09T10:19:01;4.40;;;1.90;;
7316;SDS011;3699;51.462;6.696;2022-09-09T10:21:33;3.30;;;1.60;;
7316;SDS011;3699;51.462;6.696;2022-09-09T10:24:24;6.37;;;1.67;;
7316;SDS011;3699;51.462;6.696;2022-09-09T10:27:01;4.57;;;1.70;;
7316;SDS011;3699;51.462;6.696;2022-09-09T10:29:47;5.73;;;2.47;;
7316;SDS011;3699;51.462;6.696;2022-09-09T10:32:36;7.43;;;1.70;;
7316;SDS011;3699;51.462;6.696;2022-09-09T10:35:19;3.50;;;1.50;;
7316;SDS011;3699;51.462;6.696;2022-09-09T10:38:14;4.23;;;1.77;;
7316;SDS011;3699;51.462;6.696;2022-09-09T10:40:46;4.90;;;1.50;;
7316;SDS011;3699;51.462;6.696;2022-09-09T10:43:32;5.07;;;1.50;;
7316;SDS011;3699;51.462;6.696;2022-09-09T10:46:14;3.43;;;1.60;;
7316;SDS011;3699;51.462;6.696;2022-09-09T10:48:54;5.57;;;2.17;;
7316;SDS011;3699;51.462;6.696;2022-09-09T10:51:36;2.00;;;1.60;;
7316;SDS011;3699;51.462;6.696;2022-09-09T10:54:11;4.43;;;2.23;;
7316;SDS011;3699;51.462;6.696;2022-09-09T10:56:49;5.13;;;1.60;;
7316;SDS011;3699;51.462;6.696;2022-09-09T10:59:22;3.43;;;1.60;;
7316;SDS011;3699;51.462;6.696;2022-09-09T11:01:53;3.03;;;1.57;;
7316;SDS011;3699;51.462;6.696;2022-09-09T11:04:25;4.40;;;1.47;;
7316;SDS011;3699;51.462;6.696;2022-09-09T11:06:59;4.20;;;1.70;;
7316;SDS011;3699;51.462;6.696;2022-09-09T11:09:34;4.40;;;1.70;;
7316;SDS011;3699;51.462;6.696;2022-09-09T11:12:05;5.47;;;1.83;;
7316;SDS011;3699;51.462;6.696;2022-09-09T11:14:39;2.70;;;1.53;;
7316;SDS011;3699;51.462;6.696;2022-09-09T11:17:10;5.60;;;1.97;;
7316;SDS011;3699;51.462;6.696;2022-09-09T11:19:41;3.37;;;1.60;;
7316;SDS011;3699;51.462;6.696;2022-09-09T11:22:15;7.93;;;1.67;;
7316;SDS011;3699;51.462;6.696;2022-09-09T11:24:49;2.47;;;1.53;;
7316;SDS011;3699;51.462;6.696;2022-09-09T11:27:20;2.70;;;1.47;;
7316;SDS011;3699;51.462;6.696;2022-09-09T11:30:03;3.70;;;1.70;;
7316;SDS011;3699;51.462;6.696;2022-09-09T11:32:54;5.00;;;1.60;;
7316;SDS011;3699;51.462;6.696;2022-09-09T11:35:45;3.70;;;1.70;;
7316;SDS011;3699;51.462;6.696;2022-09-09T11:38:27;3.17;;;1.30;;
7316;SDS011;3699;51.462;6.696;2022-09-09T11:40:56;3.60;;;1.50;;
7316;SDS011;3699;51.462;6.696;2022-09-09T11:43:27;6.93;;;1.90;;
7316;SDS011;3699;51.462;6.696;2022-09-09T11:45:56;6.07;;;1.80;;
7316;SDS011;3699;51.462;6.696;2022-09-09T11:48:26;2.77;;;1.63;;
7316;SDS011;3699;51.462;6.696;2022-09-09T11:51:00;2.83;;;1.43;;
7316;SDS011;3699;51.462;6.696;2022-09-09T11:53:31;5.03;;;1.63;;
7316;SDS011;3699;51.462;6.696;2022-09-09T11:56:01;2.93;;;1.40;;
7316;SDS011;3699;51.462;6.696;2022-09-09T11:58:30;1.67;;;1.20;;
7316;SDS011;3699;51.462;6.696;2022-09-09T12:01:12;4.43;;;1.57;;
7316;SDS011;3699;51.462;6.696;2022-09-09T12:03:55;2.27;;;1.43;;
7316;SDS011;3699;51.462;6.696;2022-09-09T12:06:32;2.20;;;1.30;;
7316;SDS011;3699;51.462;6.696;2022-09-09T12:09:10;2.63;;;1.43;;
7316;SDS011;3699;51.462;6.696;2022-09-09T12:11:44;4.50;;;1.33;;
7316;SDS011;3699;51.462;6.696;2022-09-09T12:14:19;3.07;;;1.37;;
7316;SDS011;3699;51.462;6.696;2022-09-09T12:16:47;3.20;;;1.20;;
7316;SDS011;3699;51.462;6.696;2022-09-09T12:19:15;2.07;;;1.23;;
7316;SDS011;3699;51.462;6.696;2022-09-09T12:21:48;1.80;;;1.33;;
7316;SDS011;3699;51.462;6.696;2022-09-09T12:24:22;3.20;;;1.30;;
7316;SDS011;3699;51.462;6.696;2022-09-09T12:26:57;2.87;;;1.20;;
7316;SDS011;3699;51.462;6.696;2022-09-09T12:29:28;3.40;;;1.43;;
7316;SDS011;3699;51.462;6.696;2022-09-09T12:32:04;2.77;;;1.30;;
7316;SDS011;3699;51.462;6.696;2022-09-09T12:34:37;1.60;;;1.50;;
7316;SDS011;3699;51.462;6.696;2022-09-09T12:37:08;1.20;;;1.10;;
7316;SDS011;3699;51.462;6.696;2022-09-09T12:39:45;2.23;;;1.40;;
7316;SDS011;3699;51.462;6.696;2022-09-09T12:42:18;3.30;;;2.30;;
7316;SDS011;3699;51.462;6.696;2022-09-09T12:44:53;3.00;;;1.07;;
7316;SDS011;3699;51.462;6.696;2022-09-09T12:47:22;3.07;;;1.47;;
7316;SDS011;3699;51.462;6.696;2022-09-09T12:49:52;3.13;;;1.27;;
7316;SDS011;3699;51.462;6.696;2022-09-09T12:52:22;1.43;;;1.30;;
7316;SDS011;3699;51.462;6.696;2022-09-09T12:54:56;2.57;;;1.50;;
7316;SDS011;3699;51.462;6.696;2022-09-09T12:57:24;4.20;;;1.60;;
7316;SDS011;3699;51.462;6.696;2022-09-09T13:00:03;3.63;;;1.70;;
7316;SDS011;3699;51.462;6.696;2022-09-09T13:02:34;6.07;;;1.60;;
7316;SDS011;3699;51.462;6.696;2022-09-09T13:05:06;3.70;;;1.77;;
7316;SDS011;3699;51.462;6.696;2022-09-09T13:07:41;3.80;;;1.60;;
7316;SDS011;3699;51.462;6.696;2022-09-09T13:10:11;4.57;;;1.60;;
7316;SDS011;3699;51.462;6.696;2022-09-09T13:12:40;3.97;;;1.63;;
7316;SDS011;3699;51.462;6.696;2022-09-09T13:15:14;2.90;;;1.60;;
7316;SDS011;3699;51.462;6.696;2022-09-09T13:17:49;3.10;;;1.80;;
7316;SDS011;3699;51.462;6.696;2022-09-09T13:20:18;2.90;;;1.50;;
7316;SDS011;3699;51.462;6.696;2022-09-09T13:22:47;2.50;;;1.77;;
7316;SDS011;3699;51.462;6.696;2022-09-09T13:25:21;2.97;;;1.60;;
7316;SDS011;3699;51.462;6.696;2022-09-09T13:27:52;3.00;;;1.43;;
7316;SDS011;3699;51.462;6.696;2022-09-09T13:30:24;1.90;;;1.50;;
7316;SDS011;3699;51.462;6.696;2022-09-09T13:33:01;5.93;;;1.70;;
7316;SDS011;3699;51.462;6.696;2022-09-09T13:35:32;3.10;;;1.40;;
7316;SDS011;3699;51.462;6.696;2022-09-09T13:38:06;4.13;;;1.80;;
7316;SDS011;3699;51.462;6.696;2022-09-09T13:40:37;2.27;;;1.30;;
7316;SDS011;3699;51.462;6.696;2022-09-09T13:43:04;3.77;;;1.47;;
7316;SDS011;3699;51.462;6.696;2022-09-09T13:45:31;3.80;;;1.70;;
7316;SDS011;3699;51.462;6.696;2022-09-09T13:47:59;4.37;;;1.70;;
7316;SDS011;3699;51.462;6.696;2022-09-09T13:50:35;2.73;;;1.90;;
7316;SDS011;3699;51.462;6.696;2022-09-09T13:53:02;4.90;;;1.50;;
7316;SDS011;3699;51.462;6.696;2022-09-09T13:55:30;2.70;;;1.40;;
7316;SDS011;3699;51.462;6.696;2022-09-09T13:57:59;3.13;;;1.60;;
7316;SDS011;3699;51.462;6.696;2022-09-09T14:00:28;3.53;;;1.80;;
7316;SDS011;3699;51.462;6.696;2022-09-09T14:02:56;2.30;;;1.47;;
7316;SDS011;3699;51.462;6.696;2022-09-09T14:05:26;2.87;;;1.57;;
7316;SDS011;3699;51.462;6.696;2022-09-09T14:07:53;3.07;;;1.77;;
7316;SDS011;3699;51.462;6.696;2022-09-09T14:10:20;3.17;;;1.50;;
7316;SDS011;3699;51.462;6.696;2022-09-09T14:12:47;1.77;;;1.30;;
7316;SDS011;3699;51.462;6.696;2022-09-09T14:15:15;2.80;;;1.63;;
7316;SDS011;3699;51.462;6.696;2022-09-09T14:17:42;3.33;;;1.87;;
7316;SDS011;3699;51.462;6.696;2022-09-09T14:20:09;3.47;;;1.90;;
7316;SDS011;3699;51.462;6.696;2022-09-09T14:22:40;3.90;;;1.60;;
7316;SDS011;3699;51.462;6.696;2022-09-09T14:25:07;7.90;;;1.70;;
7316;SDS011;3699;51.462;6.696;2022-09-09T14:27:34;3.90;;;1.77;;
7316;SDS011;3699;51.462;6.696;2022-09-09T14:30:01;3.87;;;1.50;;
7316;SDS011;3699;51.462;6.696;2022-09-09T14:32:30;4.87;;;1.43;;
7316;SDS011;3699;51.462;6.696;2022-09-09T14:34:58;3.37;;;1.40;;
7316;SDS011;3699;51.462;6.696;2022-09-09T14:37:24;1.40;;;1.30;;
7316;SDS011;3699;51.462;6.696;2022-09-09T14:39:52;0.90;;;0.90;;
7316;SDS011;3699;51.462;6.696;2022-09-09T14:42:20;1.83;;;0.90;;
7316;SDS011;3699;51.462;6.696;2022-09-09T14:44:47;2.10;;;1.00;;
7316;SDS011;3699;51.462;6.696;2022-09-09T14:47:13;3.60;;;1.13;;
7316;SDS011;3699;51.462;6.696;2022-09-09T14:49:41;1.37;;;1.17;;
7316;SDS011;3699;51.462;6.696;2022-09-09T14:52:09;1.13;;;1.03;;
7316;SDS011;3699;51.462;6.696;2022-09-09T14:54:36;1.73;;;0.93;;
7316;SDS011;3699;51.462;6.696;2022-09-09T14:57:03;2.40;;;1.27;;
7316;SDS011;3699;51.462;6.696;2022-09-09T14:59:30;1.53;;;1.00;;
7316;SDS011;3699;51.462;6.696;2022-09-09T15:01:56;3.03;;;1.20;;
7316;SDS011;3699;51.462;6.696;2022-09-09T15:04:23;2.13;;;1.13;;
7316;SDS011;3699;51.462;6.696;2022-09-09T15:06:51;2.83;;;1.10;;
7316;SDS011;3699;51.462;6.696;2022-09-09T15:09:19;2.67;;;1.20;;
7316;SDS011;3699;51.462;6.696;2022-09-09T15:11:45;1.47;;;1.27;;
7316;SDS011;3699;51.462;6.696;2022-09-09T15:14:12;1.23;;;1.07;;
7316;SDS011;3699;51.462;6.696;2022-09-09T15:16:39;1.03;;;1.00;;
7316;SDS011;3699;51.462;6.696;2022-09-09T15:19:06;1.73;;;1.20;;
7316;SDS011;3699;51.462;6.696;2022-09-09T15:21:35;1.47;;;1.30;;
7316;SDS011;3699;51.462;6.696;2022-09-09T15:24:05;1.33;;;1.23;;
7316;SDS011;3699;51.462;6.696;2022-09-09T15:26:33;1.70;;;1.23;;
7316;SDS011;3699;51.462;6.696;2022-09-09T15:29:01;2.63;;;1.50;;
7316;SDS011;3699;51.462;6.696;2022-09-09T15:31:28;4.33;;;1.63;;
7316;SDS011;3699;51.462;6.696;2022-09-09T15:33:57;4.37;;;1.50;;
7316;SDS011;3699;51.462;6.696;2022-09-09T15:36:27;4.63;;;1.50;;